Cathma — PJTL — position and weather

sailwx.info

Track history (hours):
 
Tides and Currents Weather Stations Pressure Air Temp Water Temp Dewpoint Dewpoint Depression Visibility Wind Speed Wind Dir Waves Ship Positions

Cathma

Last reported at 2016-Aug-23 09:34 UTC. Time now 2016-Aug-26 03:11 UTC.
Position N 58°42' W 004°20'.

Length 112 m; draft 6.5 m.

Type: Cargo ship. MMSI: 306832000.

Date/timePositionNaut miles runAvg speedWind from/ knotsBaromVisibWave heightAir tempDewpointWater temp
2016-Aug-23 09:34N 58°42' W 004°20'10 9.8
2016-Aug-23 08:34N 58°42' W 004°01'1110.6
2016-Aug-23 07:33N 58°42' W 003°41'1312.5
2016-Aug-23 06:33N 58°43' W 003°17'1515.6
2016-Aug-23 05:33N 58°42' W 002°47'28710.5
2016-Aug-22 02:09N 57°50' E 006°11'610.4
2016-Aug-22 01:32N 57°49' E 006°23'1110.9
2016-Aug-22 00:33N 57°48' E 006°43'100 9.9
2016-Aug-21 14:26N 57°48' E 009°50'1110.1
2016-Aug-21 13:19N 57°49' E 010°11'810.2
2016-Aug-21 12:33N 57°49' E 010°26'2110.1
2016-Aug-21 10:31N 57°46' E 011°04'1111.4
2016-Aug-21 09:33N 57°40' E 011°22'1110.9
2016-Aug-21 08:33N 57°35' E 011°40'0 0.1
2016-Aug-21 07:33N 57°35' E 011°41'0 0.0
2016-Aug-21 06:33N 57°35' E 011°41'0 0.0
2016-Aug-21 05:33N 57°35' E 011°41'5 4.8
2016-Aug-21 04:33N 57°31' E 011°37'10 9.9
2016-Aug-21 03:33N 57°21' E 011°38'9 9.4
2016-Aug-21 02:33N 57°12' E 011°39'9 9.4
2016-Aug-21 01:33N 57°03' E 011°44'10 9.7
2016-Aug-21 00:33N 56°53' E 011°50'10 9.6
2016-Aug-20 23:33N 56°44' E 011°56'9 9.4
2016-Aug-20 22:33N 56°35' E 011°59'18 8.9
2016-Aug-20 20:33N 56°18' E 012°06'9 9.5
2016-Aug-20 19:33N 56°12' E 012°20'1110.8
2016-Aug-20 18:33N 56°06' E 012°36'1010.5
2016-Aug-20 17:33N 55°56' E 012°44'1010.2
2016-Aug-20 16:34N 55°46' E 012°42'1010.5
2016-Aug-20 15:33N 55°36' E 012°42'10 9.8
2016-Aug-20 14:33N 55°26' E 012°42'8 8.3
2016-Aug-20 13:33N 55°18' E 012°45'10 9.7
2016-Aug-20 12:33N 55°16' E 013°01'10 9.8
2016-Aug-20 11:33N 55°15' E 013°18'1010.1
2016-Aug-20 10:33N 55°14' E 013°36'10 9.7
2016-Aug-20 09:33N 55°14' E 013°53'10 9.8
2016-Aug-20 08:33N 55°13' E 014°10'9 9.1
2016-Aug-20 07:34N 55°18' E 014°23'10 9.9
2016-Aug-20 06:33N 55°26' E 014°35'1010.5
2016-Aug-20 05:33N 55°31' E 014°50'1110.6
2016-Aug-20 04:33N 55°37' E 015°07'1110.7
2016-Aug-20 03:33N 55°42' E 015°23'  
Track history (hours):
 
Tides and Currents Weather Stations Pressure Air Temp Water Temp Dewpoint Dewpoint Depression Visibility Wind Speed Wind Dir Waves Ship Positions

Cathma

Last reported at 2016-Aug-23 09:34 UTC. Time now 2016-Aug-26 03:11 UTC.
Position N 58°42' W 004°20'.

Length 112 m; draft 6.5 m.

Type: Cargo ship. MMSI: 306832000.

Date/timePositionNaut miles runAvg speedWind from/ knotsBaromVisibWave heightAir tempDewpointWater temp
2016-Aug-23 09:34N 58°42' W 004°20'10 9.8
2016-Aug-23 08:34N 58°42' W 004°01'1110.6
2016-Aug-23 07:33N 58°42' W 003°41'1312.5
2016-Aug-23 06:33N 58°43' W 003°17'1515.6
2016-Aug-23 05:33N 58°42' W 002°47'28710.5
2016-Aug-22 02:09N 57°50' E 006°11'610.4
2016-Aug-22 01:32N 57°49' E 006°23'1110.9
2016-Aug-22 00:33N 57°48' E 006°43'100 9.9
2016-Aug-21 14:26N 57°48' E 009°50'1110.1
2016-Aug-21 13:19N 57°49' E 010°11'810.2
2016-Aug-21 12:33N 57°49' E 010°26'2110.1
2016-Aug-21 10:31N 57°46' E 011°04'1111.4
2016-Aug-21 09:33N 57°40' E 011°22'1110.9
2016-Aug-21 08:33N 57°35' E 011°40'0 0.1
2016-Aug-21 07:33N 57°35' E 011°41'0 0.0
2016-Aug-21 06:33N 57°35' E 011°41'0 0.0
2016-Aug-21 05:33N 57°35' E 011°41'5 4.8
2016-Aug-21 04:33N 57°31' E 011°37'10 9.9
2016-Aug-21 03:33N 57°21' E 011°38'9 9.4
2016-Aug-21 02:33N 57°12' E 011°39'9 9.4
2016-Aug-21 01:33N 57°03' E 011°44'10 9.7
2016-Aug-21 00:33N 56°53' E 011°50'10 9.6
2016-Aug-20 23:33N 56°44' E 011°56'9 9.4
2016-Aug-20 22:33N 56°35' E 011°59'18 8.9
2016-Aug-20 20:33N 56°18' E 012°06'9 9.5
2016-Aug-20 19:33N 56°12' E 012°20'1110.8
2016-Aug-20 18:33N 56°06' E 012°36'1010.5
2016-Aug-20 17:33N 55°56' E 012°44'1010.2
2016-Aug-20 16:34N 55°46' E 012°42'1010.5
2016-Aug-20 15:33N 55°36' E 012°42'10 9.8
2016-Aug-20 14:33N 55°26' E 012°42'8 8.3
2016-Aug-20 13:33N 55°18' E 012°45'10 9.7
2016-Aug-20 12:33N 55°16' E 013°01'10 9.8
2016-Aug-20 11:33N 55°15' E 013°18'1010.1
2016-Aug-20 10:33N 55°14' E 013°36'10 9.7
2016-Aug-20 09:33N 55°14' E 013°53'10 9.8
2016-Aug-20 08:33N 55°13' E 014°10'9 9.1
2016-Aug-20 07:34N 55°18' E 014°23'10 9.9
2016-Aug-20 06:33N 55°26' E 014°35'1010.5
2016-Aug-20 05:33N 55°31' E 014°50'1110.6
2016-Aug-20 04:33N 55°37' E 015°07'1110.7
2016-Aug-20 03:33N 55°42' E 015°23'  

Dump ship's entire track history